Time;durP1;ratioP1;P1;durP2;ratioP2;P2;SDS_P1;SDS_P2;PMS_P1;PMS_P2;Temp;Humidity;BMP_temperature;BMP_pressure;BME280_temperature;BME280_humidity;BME280_pressure;Samples;Min_cycle;Max_cycle;Signal;HPM_P1;HPM_P2
2023/01/13 00:02:12;;;;;;;;;;;24.20;99.90;;;;;;5012815;28;20380;-66
2023/01/13 00:04:38;;;;;;;;;;;24.20;99.90;;;;;;5012227;28;19909;-65
2023/01/13 00:07:05;;;;;;;;;;;24.20;99.90;;;;;;5012744;28;19940;-64
2023/01/13 00:09:31;;;;;;;;;;;24.30;99.90;;;;;;5013238;28;19932;-64
2023/01/13 00:11:58;;;;;;;;;;;24.40;99.90;;;;;;5012741;28;20384;-64
2023/01/13 00:14:28;;;;;;;;;;;24.50;99.90;;;;;;5012495;28;19909;-66
2023/01/13 00:16:55;;;;;;;;;;;24.60;99.90;;;;;;5012840;28;20433;-67
2023/01/13 00:19:22;;;;;;;;;;;24.70;99.90;;;;;;5012432;28;19914;-64
2023/01/13 00:21:49;;;;;;;;;;;24.80;99.90;;;;;;5012621;28;19913;-64
2023/01/13 00:24:15;;;;;;;;;;;25.00;99.90;;;;;;5012447;28;20365;-64
2023/01/13 00:26:42;;;;;;;;;;;25.10;99.90;;;;;;5013022;28;19913;-70
2023/01/13 00:29:09;;;;;;;;;;;25.10;99.90;;;;;;5016731;28;19909;-65
2023/01/13 00:31:35;;;;;;;;;;;25.30;99.90;;;;;;5016997;28;19909;-65
2023/01/13 00:34:02;;;;;;;;;;;25.30;99.90;;;;;;5015793;28;19910;-65
2023/01/13 00:36:29;;;;;;;;;;;25.30;99.90;;;;;;5016157;28;19971;-69
2023/01/13 00:38:56;;;;;;;;;;;25.30;99.90;;;;;;5016249;28;19913;-64
2023/01/13 00:41:24;;;;;;;;;;;25.20;99.90;;;;;;5015849;28;19996;-64
2023/01/13 00:43:50;;;;;;;;;;;25.20;99.90;;;;;;5015756;28;19909;-65
2023/01/13 00:46:18;;;;;;;;;;;25.20;99.90;;;;;;5016076;28;20016;-65
2023/01/13 00:48:46;;;;;;;;;;;25.30;99.90;;;;;;5014183;28;19916;-63
2023/01/13 00:51:14;;;;;;;;;;;25.40;99.90;;;;;;5015725;28;19913;-66
2023/01/13 00:53:42;;;;;;;;;;;25.60;99.90;;;;;;5014997;28;19910;-69
2023/01/13 00:56:13;;;;;;;;;;;25.70;99.90;;;;;;5015891;28;19920;-65
2023/01/13 00:58:40;;;;;;;;;;;25.70;99.90;;;;;;5015666;28;19909;-64
2023/01/13 01:01:08;;;;;;;;;;;26.00;99.90;;;;;;5015833;28;19910;-64
2023/01/13 01:03:35;;;;;;;;;;;26.00;99.90;;;;;;5015009;28;19940;-64
2023/01/13 01:06:06;;;;;;;;;;;26.10;99.90;;;;;;5015606;28;19920;-64
2023/01/13 01:08:33;;;;;;;;;;;26.30;99.90;;;;;;5015555;28;19910;-67
2023/01/13 01:11:04;;;;;;;;;;;26.70;99.90;;;;;;5015469;28;19910;-63
2023/01/13 01:13:31;;;;;;;;;;;27.20;99.90;;;;;;5014907;28;19909;-71
2023/01/13 01:15:58;;;;;;;;;;;27.60;99.90;;;;;;5015413;28;19910;-67
2023/01/13 01:18:24;;;;;;;;;;;27.70;99.90;;;;;;5015403;28;19909;-65
2023/01/13 01:20:51;;;;;;;;;;;27.80;99.90;;;;;;5015333;28;19975;-64
2023/01/13 01:23:18;;;;;;;;;;;27.70;99.90;;;;;;5014608;28;19919;-64
2023/01/13 01:25:44;;;;;;;;;;;27.40;99.90;;;;;;5015310;28;19921;-65
2023/01/13 01:28:12;;;;;;;;;;;27.60;99.90;;;;;;5015388;28;19913;-64
2023/01/13 01:30:39;;;;;;;;;;;28.00;99.90;;;;;;5015448;28;19909;-66
2023/01/13 01:33:05;;;;;;;;;;;28.50;99.90;;;;;;5014848;28;20313;-64
2023/01/13 01:35:32;;;;;;;;;;;28.90;99.90;;;;;;5014803;28;20007;-65
2023/01/13 01:37:59;;;;;;;;;;;28.90;99.90;;;;;;5014407;28;20327;-65
2023/01/13 01:40:26;;;;;;;;;;;28.50;99.90;;;;;;5014383;28;19920;-67
2023/01/13 01:45:38;;;;;;;;;;;28.60;99.90;;;;;;5014301;28;20004;-65
2023/01/13 01:48:05;;;;;;;;;;;29.00;99.90;;;;;;5015084;28;20377;-75
2023/01/13 01:50:32;;;;;;;;;;;29.60;99.90;;;;;;5014723;28;19921;-69
2023/01/13 01:53:04;;;;;;;;;;;29.80;99.90;;;;;;5014336;28;19910;-65
2023/01/13 01:55:33;;;;;;;;;;;29.80;99.90;;;;;;5014764;28;20380;-70
2023/01/13 01:58:03;;;;;;;;;;;29.60;99.90;;;;;;5014668;28;20341;-65
2023/01/13 02:00:29;;;;;;;;;;;29.50;99.90;;;;;;5014673;28;20351;-66
2023/01/13 02:02:56;;;;;;;;;;;28.90;99.90;;;;;;5014305;28;19976;-69
2023/01/13 02:05:23;;;;;;;;;;;28.50;99.90;;;;;;5014349;28;19917;-68
2023/01/13 02:07:51;;;;;;;;;;;28.20;99.90;;;;;;5014380;28;19996;-67
2023/01/13 02:10:19;;;;;;;;;;;27.60;99.90;;;;;;5014292;28;19941;-70
2023/01/13 02:12:47;;;;;;;;;;;27.30;99.90;;;;;;5014613;28;19909;-65
2023/01/13 02:15:16;;;;;;;;;;;27.30;99.90;;;;;;5013894;28;19916;-65
2023/01/13 02:17:55;;;;;;;;;;;27.50;99.90;;;;;;5014471;28;19920;-73
2023/01/13 02:20:21;;;;;;;;;;;27.30;99.90;;;;;;5014101;28;20276;-76
2023/01/13 02:22:51;;;;;;;;;;;27.10;99.90;;;;;;5014211;28;19925;-70
2023/01/13 02:25:23;;;;;;;;;;;26.80;99.90;;;;;;5013878;28;20005;-71
2023/01/13 02:28:02;;;;;;;;;;;26.50;99.90;;;;;;5014368;28;19953;-75
2023/01/13 02:33:51;;;;;;;;;;;26.50;99.90;;;;;;5014012;28;20318;-70
2023/01/13 02:36:20;;;;;;;;;;;26.60;99.90;;;;;;4992196;28;19913;-72
2023/01/13 02:38:50;;;;;;;;;;;26.40;99.90;;;;;;4993887;28;19986;-69
2023/01/13 02:44:06;;;;;;;;;;;26.30;99.90;;;;;;4994455;28;19920;-65
2023/01/13 02:46:39;;;;;;;;;;;26.30;99.90;;;;;;4994567;28;20361;-65
2023/01/13 02:49:08;;;;;;;;;;;26.40;99.90;;;;;;4994551;28;20412;-65
2023/01/13 02:51:35;;;;;;;;;;;26.30;99.90;;;;;;4993796;28;19910;-67
2023/01/13 02:54:02;;;;;;;;;;;26.10;99.90;;;;;;4994173;28;20427;-64
2023/01/13 02:56:30;;;;;;;;;;;26.10;99.90;;;;;;4994321;28;19910;-72
2023/01/13 02:58:57;;;;;;;;;;;26.10;99.90;;;;;;4994310;28;19917;-70
2023/01/13 03:01:24;;;;;;;;;;;26.00;99.90;;;;;;4994025;28;19914;-68
2023/01/13 03:03:51;;;;;;;;;;;26.00;99.90;;;;;;4993654;28;19909;-74
2023/01/13 03:06:35;;;;;;;;;;;25.80;99.90;;;;;;4994458;28;19914;-77
2023/01/13 03:09:06;;;;;;;;;;;25.80;99.90;;;;;;4994323;28;19957;-71
2023/01/13 03:11:43;;;;;;;;;;;25.90;99.90;;;;;;4994381;28;19936;-76
2023/01/13 03:14:20;;;;;;;;;;;25.90;99.90;;;;;;4993955;28;19910;-80
2023/01/13 03:16:55;;;;;;;;;;;25.90;99.90;;;;;;4994239;28;19917;-71
2023/01/13 03:19:40;;;;;;;;;;;25.90;99.90;;;;;;4993912;28;20272;-78
2023/01/13 03:22:26;;;;;;;;;;;25.90;99.90;;;;;;4993811;28;20005;-79
2023/01/13 03:25:02;;;;;;;;;;;26.00;99.90;;;;;;4993734;28;20323;-73
2023/01/13 03:27:58;;;;;;;;;;;26.00;99.90;;;;;;4993583;28;19945;-74
2023/01/13 03:30:32;;;;;;;;;;;25.90;99.90;;;;;;4997339;28;19910;-73
2023/01/13 03:33:18;;;;;;;;;;;25.80;99.90;;;;;;4993431;28;19910;-76
2023/01/13 03:35:47;;;;;;;;;;;25.80;99.90;;;;;;4993848;28;19909;-80
2023/01/13 03:38:23;;;;;;;;;;;25.70;99.90;;;;;;5013503;28;19925;-78
2023/01/13 03:41:08;;;;;;;;;;;25.70;99.90;;;;;;5013523;28;20335;-78
2023/01/13 03:46:31;;;;;;;;;;;25.70;99.90;;;;;;5013778;28;19964;-70
2023/01/13 03:49:01;;;;;;;;;;;25.70;99.90;;;;;;5013368;28;19949;-69
2023/01/13 03:51:30;;;;;;;;;;;25.80;99.90;;;;;;5013199;28;19917;-70
2023/01/13 03:53:59;;;;;;;;;;;25.80;99.90;;;;;;5012894;28;19964;-65
2023/01/13 03:56:31;;;;;;;;;;;25.80;99.90;;;;;;5013211;28;19909;-70
2023/01/13 03:58:58;;;;;;;;;;;25.90;99.90;;;;;;5013250;28;19913;-65
2023/01/13 04:01:28;;;;;;;;;;;26.00;99.90;;;;;;5012654;28;20279;-76
2023/01/13 04:04:04;;;;;;;;;;;26.00;99.90;;;;;;5016554;28;20276;-65
2023/01/13 04:06:39;;;;;;;;;;;25.90;99.90;;;;;;5016977;28;19967;-71
2023/01/13 04:09:08;;;;;;;;;;;25.80;99.90;;;;;;5017061;28;20012;-67
2023/01/13 04:11:39;;;;;;;;;;;25.70;99.90;;;;;;5016675;28;19909;-76
2023/01/13 04:14:07;;;;;;;;;;;25.80;99.90;;;;;;5016635;28;19909;-74
2023/01/13 04:16:34;;;;;;;;;;;25.80;99.90;;;;;;5016899;28;19917;-74
2023/01/13 04:19:00;;;;;;;;;;;26.00;99.90;;;;;;5016723;28;19914;-76
2023/01/13 04:21:28;;;;;;;;;;;25.90;99.90;;;;;;5016453;28;20056;-74
2023/01/13 04:23:55;;;;;;;;;;;25.80;99.90;;;;;;5016433;28;19914;-75
2023/01/13 04:26:23;;;;;;;;;;;25.90;99.90;;;;;;5016926;28;20375;-73
2023/01/13 04:28:50;;;;;;;;;;;25.90;99.90;;;;;;5016992;28;20249;-66
2023/01/13 04:31:17;;;;;;;;;;;25.90;99.90;;;;;;5016347;28;19955;-66
2023/01/13 04:33:44;;;;;;;;;;;25.70;99.90;;;;;;5016094;28;19909;-68
2023/01/13 04:36:10;;;;;;;;;;;25.70;99.90;;;;;;5016297;28;19921;-75
2023/01/13 04:38:37;;;;;;;;;;;25.50;99.90;;;;;;5016409;28;19909;-65
2023/01/13 04:41:04;;;;;;;;;;;25.50;99.90;;;;;;5016447;28;19964;-70
2023/01/13 04:43:31;;;;;;;;;;;25.40;99.90;;;;;;5014464;28;19969;-69
2023/01/13 04:45:57;;;;;;;;;;;25.30;99.90;;;;;;5016533;28;19909;-71
2023/01/13 04:48:24;;;;;;;;;;;25.30;99.90;;;;;;5016046;28;19932;-69
2023/01/13 04:50:50;;;;;;;;;;;25.20;99.90;;;;;;5016523;28;19910;-65
2023/01/13 04:53:17;;;;;;;;;;;25.10;99.90;;;;;;5015411;28;19917;-75
2023/01/13 04:55:46;;;;;;;;;;;25.20;99.90;;;;;;5015891;28;19909;-70
2023/01/13 04:58:12;;;;;;;;;;;25.00;99.90;;;;;;5016046;28;19913;-68
2023/01/13 05:00:39;;;;;;;;;;;25.00;99.90;;;;;;5015998;28;19921;-74
2023/01/13 05:03:05;;;;;;;;;;;25.00;99.90;;;;;;5015631;28;19924;-78
2023/01/13 05:05:32;;;;;;;;;;;24.90;99.90;;;;;;5015855;28;19939;-66
2023/01/13 05:07:59;;;;;;;;;;;24.90;99.90;;;;;;5016152;28;19909;-68
2023/01/13 05:10:26;;;;;;;;;;;25.00;99.90;;;;;;5016039;28;19909;-70
2023/01/13 05:18:23;;;;;;;;;;;25.20;99.90;;;;;;5015755;28;19982;-64
2023/01/13 05:20:50;;;;;;;;;;;25.20;99.90;;;;;;5015367;28;20000;-64
2023/01/13 05:26:01;;;;;;;;;;;25.10;99.90;;;;;;5015723;28;20264;-66
2023/01/13 05:28:32;;;;;;;;;;;25.10;99.90;;;;;;5015348;28;19932;-65
2023/01/13 05:30:59;;;;;;;;;;;25.00;99.90;;;;;;5015577;28;20287;-64
2023/01/13 05:33:25;;;;;;;;;;;25.00;99.90;;;;;;5014648;28;19910;-64
2023/01/13 05:35:52;;;;;;;;;;;25.00;99.90;;;;;;5015304;28;19925;-64
2023/01/13 05:38:18;;;;;;;;;;;25.00;99.90;;;;;;5015465;28;20308;-67
2023/01/13 05:43:31;;;;;;;;;;;25.10;99.90;;;;;;5014704;28;19924;-64
2023/01/13 05:46:01;;;;;;;;;;;25.10;99.90;;;;;;5015017;28;20379;-65
2023/01/13 05:48:30;;;;;;;;;;;25.00;99.90;;;;;;5014898;28;19909;-67
2023/01/13 05:50:57;;;;;;;;;;;24.90;99.90;;;;;;5013877;28;19909;-67
2023/01/13 05:53:23;;;;;;;;;;;24.80;99.90;;;;;;5012299;28;20019;-65
2023/01/13 05:55:50;;;;;;;;;;;24.70;99.90;;;;;;5012948;28;19910;-66
2023/01/13 05:58:18;;;;;;;;;;;24.70;99.90;;;;;;5012991;28;20001;-65
2023/01/13 06:00:44;;;;;;;;;;;24.70;99.90;;;;;;5012654;28;19916;-69
2023/01/13 06:03:12;;;;;;;;;;;24.70;99.90;;;;;;5012091;28;20364;-65
2023/01/13 06:05:39;;;;;;;;;;;24.60;99.90;;;;;;5012440;28;19910;-64
2023/01/13 06:08:06;;;;;;;;;;;24.60;99.90;;;;;;5012556;28;19909;-65
2023/01/13 06:10:33;;;;;;;;;;;24.60;99.90;;;;;;5012876;28;19948;-65
2023/01/13 06:13:00;;;;;;;;;;;24.60;99.90;;;;;;5012451;28;19916;-64
2023/01/13 06:15:27;;;;;;;;;;;24.50;99.90;;;;;;5012680;28;19916;-70
2023/01/13 06:17:55;;;;;;;;;;;24.50;99.90;;;;;;5012120;28;20408;-63
2023/01/13 06:20:22;;;;;;;;;;;24.60;99.90;;;;;;5012459;28;19913;-64
2023/01/13 06:22:49;;;;;;;;;;;24.60;99.90;;;;;;5012228;28;20369;-66
2023/01/13 06:25:28;;;;;;;;;;;24.60;99.90;;;;;;5011472;28;19913;-64
2023/01/13 06:27:56;;;;;;;;;;;24.60;99.90;;;;;;5012517;28;19936;-68
2023/01/13 06:30:23;;;;;;;;;;;24.50;99.90;;;;;;5012349;28;20008;-73
2023/01/13 06:32:52;;;;;;;;;;;24.50;99.90;;;;;;5012440;28;19914;-65
2023/01/13 06:35:23;;;;;;;;;;;24.50;99.90;;;;;;5012275;28;19910;-65
2023/01/13 06:37:52;;;;;;;;;;;24.60;99.90;;;;;;5012399;28;19925;-76
2023/01/13 06:40:19;;;;;;;;;;;24.40;99.90;;;;;;5012443;28;19990;-67
2023/01/13 06:45:31;;;;;;;;;;;24.40;99.90;;;;;;5012589;28;19936;-80
2023/01/13 06:47:58;;;;;;;;;;;24.40;99.90;;;;;;5012470;28;19910;-67
2023/01/13 06:50:26;;;;;;;;;;;24.50;99.90;;;;;;5012223;28;19955;-77
2023/01/13 06:52:52;;;;;;;;;;;24.50;99.90;;;;;;5011884;28;19925;-75
2023/01/13 06:55:19;;;;;;;;;;;24.40;99.90;;;;;;5011930;28;20000;-71
2023/01/13 06:57:50;;;;;;;;;;;24.40;99.90;;;;;;5011499;28;19910;-73
2023/01/13 07:00:17;;;;;;;;;;;24.30;99.90;;;;;;5011966;28;19914;-75
2023/01/13 07:02:43;;;;;;;;;;;24.30;99.90;;;;;;5011428;28;20493;-77
2023/01/13 07:05:10;;;;;;;;;;;24.30;99.90;;;;;;5012025;28;19909;-77
2023/01/13 07:07:37;;;;;;;;;;;24.30;99.90;;;;;;5011680;28;19917;-77
2023/01/13 07:10:04;;;;;;;;;;;24.30;99.90;;;;;;5011477;28;20261;-79
2023/01/13 07:15:16;;;;;;;;;;;24.30;99.90;;;;;;5011488;28;19917;-71
2023/01/13 07:15:17;;;;;;;;;;;24.20;99.90;;;;;;5010509;28;20391;-78
2023/01/13 07:17:44;;;;;;;;;;;24.20;99.90;;;;;;5011705;28;19921;-79
2023/01/13 07:20:11;;;;;;;;;;;24.10;99.90;;;;;;5013334;28;19992;-79
2023/01/13 07:22:37;;;;;;;;;;;24.00;99.90;;;;;;5011138;28;19945;-79
2023/01/13 07:25:04;;;;;;;;;;;24.10;99.90;;;;;;5011894;28;20353;-74
2023/01/13 07:27:31;;;;;;;;;;;24.00;99.90;;;;;;5011527;28;20356;-77
2023/01/13 07:29:57;;;;;;;;;;;24.00;99.90;;;;;;5011828;28;20009;-65
2023/01/13 07:32:24;;;;;;;;;;;24.00;99.90;;;;;;5011207;28;19953;-77
2023/01/13 07:34:51;;;;;;;;;;;23.90;99.90;;;;;;5006417;28;19978;-71
2023/01/13 07:37:17;;;;;;;;;;;23.90;99.90;;;;;;5004657;28;20443;-74
2023/01/13 07:39:45;;;;;;;;;;;23.90;99.90;;;;;;5005084;28;20352;-66
2023/01/13 07:44:56;;;;;;;;;;;23.80;99.90;;;;;;5005302;28;19971;-67
2023/01/13 07:47:23;;;;;;;;;;;23.80;99.90;;;;;;5004363;28;20012;-74
2023/01/13 07:49:50;;;;;;;;;;;23.80;99.90;;;;;;5004467;28;19914;-72
2023/01/13 07:52:16;;;;;;;;;;;23.80;99.90;;;;;;5002748;28;19987;-64
2023/01/13 07:54:43;;;;;;;;;;;23.70;99.90;;;;;;5005028;28;20380;-65
2023/01/13 07:57:10;;;;;;;;;;;23.70;99.90;;;;;;5004650;28;19919;-63
2023/01/13 07:59:36;;;;;;;;;;;23.70;99.90;;;;;;5004588;28;19926;-71
2023/01/13 08:02:03;;;;;;;;;;;23.70;99.90;;;;;;5003216;28;20386;-72
2023/01/13 08:04:30;;;;;;;;;;;23.80;99.90;;;;;;5005146;28;20004;-78
2023/01/13 08:06:56;;;;;;;;;;;23.70;99.90;;;;;;5005112;28;19957;-65
2023/01/13 08:09:23;;;;;;;;;;;23.70;99.90;;;;;;5004364;28;19961;-63
2023/01/13 08:13:16;;;;;;;;;;;23.60;99.90;;;;;;5004515;28;19921;-63
2023/01/13 08:14:39;;;;;;;;;;;23.60;99.90;;;;;;5004143;28;19913;-76
2023/01/13 08:17:07;;;;;;;;;;;23.60;99.90;;;;;;5004523;28;19917;-72
2023/01/13 08:19:34;;;;;;;;;;;23.60;99.90;;;;;;5005125;28;19914;-72
2023/01/13 08:22:00;;;;;;;;;;;23.60;99.90;;;;;;5004529;28;20512;-65
2023/01/13 08:24:27;;;;;;;;;;;23.60;99.90;;;;;;5004184;28;19914;-69
2023/01/13 08:26:54;;;;;;;;;;;23.60;99.90;;;;;;5004389;28;20388;-65
2023/01/13 08:29:20;;;;;;;;;;;23.50;99.90;;;;;;5004192;28;20364;-69
2023/01/13 08:31:47;;;;;;;;;;;23.50;99.90;;;;;;5004857;28;20033;-66
2023/01/13 08:34:14;;;;;;;;;;;23.50;99.90;;;;;;5003868;28;20755;-70
2023/01/13 08:36:40;;;;;;;;;;;23.50;99.90;;;;;;5004121;28;19930;-76
2023/01/13 08:39:07;;;;;;;;;;;23.50;99.90;;;;;;5005293;28;19917;-77
2023/01/13 08:44:18;;;;;;;;;;;23.50;99.90;;;;;;5004963;28;19925;-78
2023/01/13 08:46:45;;;;;;;;;;;23.40;99.90;;;;;;5004553;28;19920;-76
2023/01/13 08:49:11;;;;;;;;;;;23.40;99.90;;;;;;5007115;28;19947;-71
2023/01/13 08:51:38;;;;;;;;;;;23.40;99.90;;;;;;5008457;28;19913;-78
2023/01/13 08:54:05;;;;;;;;;;;23.40;99.90;;;;;;5007778;28;20535;-74
2023/01/13 08:56:31;;;;;;;;;;;23.30;99.90;;;;;;5008177;28;19955;-71
2023/01/13 08:58:59;;;;;;;;;;;23.30;99.90;;;;;;5008094;28;20611;-67
2023/01/13 09:01:26;;;;;;;;;;;23.30;99.90;;;;;;5007882;28;19958;-64
2023/01/13 09:03:53;;;;;;;;;;;23.30;99.90;;;;;;5007921;28;19948;-68
2023/01/13 09:06:19;;;;;;;;;;;23.30;99.90;;;;;;5007823;28;19913;-66
2023/01/13 09:08:46;;;;;;;;;;;23.30;99.90;;;;;;4995374;28;19913;-65
2023/01/13 09:14:03;;;;;;;;;;;23.20;99.90;;;;;;4988195;28;19988;-66
2023/01/13 09:16:29;;;;;;;;;;;23.20;99.90;;;;;;4995522;28;20381;-66
2023/01/13 09:18:56;;;;;;;;;;;23.20;99.90;;;;;;4995907;28;19941;-64
2023/01/13 09:21:22;;;;;;;;;;;23.20;99.90;;;;;;4995809;28;19914;-64
2023/01/13 09:23:49;;;;;;;;;;;23.10;99.90;;;;;;4995524;28;19935;-66
2023/01/13 09:26:19;;;;;;;;;;;23.10;99.90;;;;;;4996007;28;19957;-67
2023/01/13 09:28:46;;;;;;;;;;;23.10;99.90;;;;;;4995822;28;19972;-64
2023/01/13 09:31:12;;;;;;;;;;;23.10;99.90;;;;;;4995002;28;19980;-64
2023/01/13 09:36:23;;;;;;;;;;;23.00;99.90;;;;;;4995728;28;19924;-63
2023/01/13 09:38:50;;;;;;;;;;;23.00;99.90;;;;;;4995851;28;20279;-70
2023/01/13 09:44:05;;;;;;;;;;;23.00;99.90;;;;;;4995952;28;19928;-68
2023/01/13 09:46:47;;;;;;;;;;;23.00;99.90;;;;;;4995351;28;19916;-65
2023/01/13 09:49:21;;;;;;;;;;;23.00;99.90;;;;;;4995935;28;19910;-71
2023/01/13 09:51:57;;;;;;;;;;;23.00;99.90;;;;;;4996957;28;19910;-64
2023/01/13 09:54:29;;;;;;;;;;;23.00;99.90;;;;;;5015012;28;19920;-67
2023/01/13 09:56:56;;;;;;;;;;;23.00;99.90;;;;;;5015342;28;20000;-75
2023/01/13 09:59:23;;;;;;;;;;;23.00;99.90;;;;;;5014268;28;19914;-64
2023/01/13 10:02:19;;;;;;;;;;;23.00;99.90;;;;;;5014338;28;19919;-73
2023/01/13 10:05:05;;;;;;;;;;;23.00;99.90;;;;;;5010342;28;19909;-71
2023/01/13 10:07:41;;;;;;;;;;;22.90;99.90;;;;;;5015155;28;19956;-69
2023/01/13 10:10:12;;;;;;;;;;;23.00;99.90;;;;;;5015207;28;19909;-69
2023/01/13 10:15:26;;;;;;;;;;;23.00;99.90;;;;;;5014675;28;19916;-67
2023/01/13 10:18:02;;;;;;;;;;;22.90;99.90;;;;;;5014771;28;19925;-76
2023/01/13 10:20:49;;;;;;;;;;;22.90;99.90;;;;;;5014978;28;19913;-69
2023/01/13 10:23:21;;;;;;;;;;;22.90;99.90;;;;;;5014003;28;20013;-76
2023/01/13 10:25:51;;;;;;;;;;;22.90;99.90;;;;;;5014995;28;19933;-68
2023/01/13 10:28:18;;;;;;;;;;;22.80;99.90;;;;;;5014949;28;19909;-80
2023/01/13 10:30:45;;;;;;;;;;;22.80;99.90;;;;;;5014256;28;20448;-78
2023/01/13 10:33:13;;;;;;;;;;;22.80;99.90;;;;;;5014217;28;19918;-65
2023/01/13 10:35:49;;;;;;;;;;;22.80;99.90;;;;;;5014569;28;19957;-75
2023/01/13 10:38:17;;;;;;;;;;;22.80;99.90;;;;;;5014881;28;20332;-72
2023/01/13 10:40:54;;;;;;;;;;;22.70;99.90;;;;;;5014570;28;19932;-78
2023/01/13 10:43:21;;;;;;;;;;;22.80;99.90;;;;;;5013935;28;20383;-83
2023/01/13 10:45:51;;;;;;;;;;;22.70;99.90;;;;;;5013736;28;19941;-68
2023/01/13 10:48:18;;;;;;;;;;;22.70;99.90;;;;;;5014455;28;19917;-71
2023/01/13 10:50:47;;;;;;;;;;;22.70;99.90;;;;;;5014506;28;19917;-76
2023/01/13 10:53:18;;;;;;;;;;;22.60;99.90;;;;;;5013658;28;19956;-75
2023/01/13 10:55:57;;;;;;;;;;;22.60;99.90;;;;;;5014631;28;19963;-76
2023/01/13 10:58:24;;;;;;;;;;;22.60;99.90;;;;;;5014123;28;19945;-74
2023/01/13 11:00:58;;;;;;;;;;;22.60;99.90;;;;;;5013368;28;19910;-79
2023/01/13 11:03:26;;;;;;;;;;;22.60;99.90;;;;;;5013870;28;19918;-80
2023/01/13 11:05:57;;;;;;;;;;;22.60;99.90;;;;;;5014577;28;19913;-81
2023/01/13 11:08:28;;;;;;;;;;;22.60;99.90;;;;;;5014406;28;19916;-75
2023/01/13 11:10:56;;;;;;;;;;;22.60;99.90;;;;;;5013811;28;20245;-78
2023/01/13 11:13:26;;;;;;;;;;;22.60;99.90;;;;;;5013697;28;19913;-79
2023/01/13 11:15:55;;;;;;;;;;;22.60;99.90;;;;;;5013677;28;19971;-78
2023/01/13 11:18:31;;;;;;;;;;;22.60;99.90;;;;;;5014464;28;19995;-80
2023/01/13 11:20:58;;;;;;;;;;;22.60;99.90;;;;;;5014324;28;19937;-74
2023/01/13 11:23:34;;;;;;;;;;;22.50;99.90;;;;;;5013997;28;20003;-77
2023/01/13 11:26:09;;;;;;;;;;;22.60;99.90;;;;;;5014606;28;19909;-75
2023/01/13 11:28:56;;;;;;;;;;;22.50;99.90;;;;;;5014099;28;20008;-65
2023/01/13 11:31:25;;;;;;;;;;;22.50;99.90;;;;;;5013270;28;19914;-64
2023/01/13 11:34:13;;;;;;;;;;;22.50;99.90;;;;;;5013502;28;20372;-65
2023/01/13 11:36:44;;;;;;;;;;;22.50;99.90;;;;;;5013619;28;19913;-67
2023/01/13 11:39:17;;;;;;;;;;;22.60;99.90;;;;;;5013684;28;19910;-65
2023/01/13 11:42:19;;;;;;;;;;;22.50;99.90;;;;;;5013580;28;19924;-69
2023/01/13 11:44:45;;;;;;;;;;;22.50;99.90;;;;;;5013053;28;19910;-65
2023/01/13 11:47:13;;;;;;;;;;;22.50;99.90;;;;;;5012866;28;19913;-65
2023/01/13 11:49:40;;;;;;;;;;;22.50;99.90;;;;;;5004761;28;19913;-65
2023/01/13 11:52:26;;;;;;;;;;;22.50;99.90;;;;;;5003194;28;19913;-71
2023/01/13 11:55:11;;;;;;;;;;;22.60;99.90;;;;;;5005260;28;19921;-74
2023/01/13 11:57:56;;;;;;;;;;;22.50;99.90;;;;;;5004904;28;19913;-67
2023/01/13 12:00:32;;;;;;;;;;;22.50;99.90;;;;;;5004545;28;20016;-76
2023/01/13 12:03:07;;;;;;;;;;;22.50;99.90;;;;;;5004366;28;20019;-68
2023/01/13 12:05:36;;;;;;;;;;;22.50;99.90;;;;;;5004614;28;20284;-67
2023/01/13 12:08:16;;;;;;;;;;;22.50;99.90;;;;;;5004785;28;20652;-75
2023/01/13 12:10:55;;;;;;;;;;;22.50;99.90;;;;;;5004949;28;20019;-64
2023/01/13 12:13:33;;;;;;;;;;;22.50;99.90;;;;;;5004899;28;20284;-67
2023/01/13 12:16:06;;;;;;;;;;;22.50;99.90;;;;;;5004395;28;19914;-65
2023/01/13 12:18:51;;;;;;;;;;;22.50;99.90;;;;;;5004795;28;19923;-75
2023/01/13 12:21:21;;;;;;;;;;;22.50;99.90;;;;;;5004563;28;20000;-68
2023/01/13 12:23:54;;;;;;;;;;;22.50;99.90;;;;;;5006681;28;20513;-71
2023/01/13 12:26:21;;;;;;;;;;;22.40;99.90;;;;;;5008700;28;20475;-65
2023/01/13 12:28:54;;;;;;;;;;;22.40;99.90;;;;;;5008571;28;19913;-77
2023/01/13 12:31:20;;;;;;;;;;;22.40;99.90;;;;;;5008509;28;19985;-65
2023/01/13 12:33:56;;;;;;;;;;;22.40;99.90;;;;;;5008085;28;20008;-69
2023/01/13 12:36:50;;;;;;;;;;;22.50;99.90;;;;;;5007973;28;20299;-64
2023/01/13 12:39:36;;;;;;;;;;;22.40;99.90;;;;;;5008140;28;19948;-64
2023/01/13 12:45:08;;;;;;;;;;;22.50;99.90;;;;;;5008710;28;19920;-72
2023/01/13 12:47:36;;;;;;;;;;;22.40;99.90;;;;;;5008086;28;19947;-77
2023/01/13 12:50:20;;;;;;;;;;;22.40;99.90;;;;;;5008176;28;20372;-66
2023/01/13 12:52:48;;;;;;;;;;;22.40;99.90;;;;;;5008114;28;20300;-71
2023/01/13 12:55:24;;;;;;;;;;;22.40;99.90;;;;;;5007612;28;19913;-79
2023/01/13 12:58:14;;;;;;;;;;;22.40;99.90;;;;;;5008512;28;19967;-83
2023/01/13 13:00:41;;;;;;;;;;;22.40;99.90;;;;;;5005015;28;19947;-84
2023/01/13 13:03:11;;;;;;;;;;;22.50;99.90;;;;;;5007934;28;19922;-65
2023/01/13 13:05:56;;;;;;;;;;;22.40;99.90;;;;;;5009393;28;19917;-81
2023/01/13 13:08:43;;;;;;;;;;;22.40;99.90;;;;;;5008803;28;19996;-70
2023/01/13 13:14:06;;;;;;;;;;;22.40;99.90;;;;;;5008936;28;19920;-74
2023/01/13 13:16:44;;;;;;;;;;;22.40;99.90;;;;;;5009191;28;20324;-66
2023/01/13 13:19:20;;;;;;;;;;;22.40;99.90;;;;;;5008929;28;19913;-68
2023/01/13 13:22:04;;;;;;;;;;;22.40;99.90;;;;;;5008267;28;19921;-64
2023/01/13 13:24:31;;;;;;;;;;;22.30;99.90;;;;;;5008258;28;19953;-76
2023/01/13 13:27:15;;;;;;;;;;;22.40;99.90;;;;;;5007862;28;19921;-81
2023/01/13 13:29:49;;;;;;;;;;;22.40;99.90;;;;;;5007329;28;20577;-78
2023/01/13 13:32:24;;;;;;;;;;;22.40;99.90;;;;;;5007028;28;19914;-68
2023/01/13 13:34:54;;;;;;;;;;;22.40;99.90;;;;;;5006836;28;19914;-72
2023/01/13 13:37:28;;;;;;;;;;;22.40;99.90;;;;;;5006657;28;20041;-78
2023/01/13 13:48:24;;;;;;;;;;;22.40;99.90;;;;;;5007363;28;19972;-77
2023/01/13 13:50:58;;;;;;;;;;;22.40;99.90;;;;;;5007303;28;19913;-82
2023/01/13 13:53:27;;;;;;;;;;;22.30;99.90;;;;;;5006739;28;20367;-83
2023/01/13 13:56:01;;;;;;;;;;;22.30;99.90;;;;;;5008158;28;19924;-84
2023/01/13 13:58:29;;;;;;;;;;;22.30;99.90;;;;;;5006965;28;19921;-84
2023/01/13 14:00:56;;;;;;;;;;;22.30;99.90;;;;;;5006720;28;19913;-74
2023/01/13 14:03:25;;;;;;;;;;;22.30;99.90;;;;;;5013155;28;20012;-82
2023/01/13 14:05:57;;;;;;;;;;;22.30;99.90;;;;;;5015531;28;19914;-79
2023/01/13 14:08:24;;;;;;;;;;;22.30;99.90;;;;;;5015300;28;20371;-83
2023/01/13 14:10:51;;;;;;;;;;;22.30;99.90;;;;;;5015413;28;19914;-83
2023/01/13 14:13:19;;;;;;;;;;;22.30;99.90;;;;;;5014894;28;19914;-83
2023/01/13 14:15:47;;;;;;;;;;;22.30;99.90;;;;;;5015383;28;19910;-83
2023/01/13 14:18:16;;;;;;;;;;;22.30;99.90;;;;;;5015345;28;19909;-84
2023/01/13 14:20:43;;;;;;;;;;;22.30;99.90;;;;;;5015106;28;19956;-82
2023/01/13 14:23:17;;;;;;;;;;;22.30;99.90;;;;;;5014879;28;19953;-71
2023/01/13 14:25:47;;;;;;;;;;;22.30;99.90;;;;;;5015205;28;19909;-76
2023/01/13 14:28:17;;;;;;;;;;;22.30;99.90;;;;;;5015053;28;19910;-74
2023/01/13 14:30:44;;;;;;;;;;;22.30;99.90;;;;;;5014902;28;19910;-74
2023/01/13 14:33:17;;;;;;;;;;;22.30;99.90;;;;;;5014782;28;19996;-83
2023/01/13 14:36:04;;;;;;;;;;;22.30;99.90;;;;;;5015055;28;19996;-73
2023/01/13 14:38:30;;;;;;;;;;;22.30;99.90;;;;;;5014511;28;20025;-79
2023/01/13 14:40:57;;;;;;;;;;;22.20;99.90;;;;;;5015164;28;19909;-80
2023/01/13 14:43:25;;;;;;;;;;;22.30;99.90;;;;;;5014268;28;20419;-81
2023/01/13 14:45:58;;;;;;;;;;;22.20;99.90;;;;;;5014008;28;19964;-78
2023/01/13 14:48:36;;;;;;;;;;;22.20;99.90;;;;;;5015069;28;19953;-83
2023/01/13 14:51:04;;;;;;;;;;;22.20;99.90;;;;;;5014764;28;19913;-73
2023/01/13 14:53:42;;;;;;;;;;;22.20;99.90;;;;;;5013870;28;20284;-81
2023/01/13 14:56:26;;;;;;;;;;;22.20;99.90;;;;;;5014544;28;19944;-68
2023/01/13 14:58:53;;;;;;;;;;;22.20;99.90;;;;;;5014345;28;19988;-64
2023/01/13 15:01:38;;;;;;;;;;;22.10;99.90;;;;;;5014336;28;19917;-65
2023/01/13 15:04:17;;;;;;;;;;;22.20;99.90;;;;;;5014237;28;19918;-64
2023/01/13 15:06:47;;;;;;;;;;;22.20;99.90;;;;;;5014107;28;19916;-66
2023/01/13 15:09:14;;;;;;;;;;;22.10;99.90;;;;;;5013472;28;19916;-63
2023/01/13 15:11:40;;;;;;;;;;;22.10;99.90;;;;;;5013683;28;19959;-64
2023/01/13 15:14:09;;;;;;;;;;;22.20;99.90;;;;;;5014005;28;19917;-65
2023/01/13 15:16:36;;;;;;;;;;;22.20;99.90;;;;;;5014205;28;20360;-65
2023/01/13 15:19:03;;;;;;;;;;;22.20;99.90;;;;;;5014015;28;20288;-64
2023/01/13 15:21:29;;;;;;;;;;;22.20;99.90;;;;;;5013709;28;20000;-65
2023/01/13 15:23:56;;;;;;;;;;;22.20;99.90;;;;;;5013557;28;20384;-65
2023/01/13 15:26:27;;;;;;;;;;;22.20;99.90;;;;;;5013874;28;19975;-69
2023/01/13 15:28:55;;;;;;;;;;;22.20;99.90;;;;;;5013701;28;19910;-64
2023/01/13 15:31:22;;;;;;;;;;;22.20;99.90;;;;;;5012433;28;20376;-65